sensor_id;sensor_type;location;lat;lon;timestamp;temperature;humidity
57857;DHT22;43683;48.650;9.290;2023-07-16T00:01:56;19.50;89.90
57857;DHT22;43683;48.650;9.290;2023-07-16T00:04:22;19.50;90.00
57857;DHT22;43683;48.650;9.290;2023-07-16T00:06:47;19.50;90.10
57857;DHT22;43683;48.650;9.290;2023-07-16T00:09:13;19.30;90.20
57857;DHT22;43683;48.650;9.290;2023-07-16T00:11:38;19.10;90.30
57857;DHT22;43683;48.650;9.290;2023-07-16T00:14:04;19.00;90.30
57857;DHT22;43683;48.650;9.290;2023-07-16T00:16:30;19.00;90.50
57857;DHT22;43683;48.650;9.290;2023-07-16T00:18:55;18.90;90.40
57857;DHT22;43683;48.650;9.290;2023-07-16T00:21:21;19.00;90.50
57857;DHT22;43683;48.650;9.290;2023-07-16T00:23:47;18.90;90.40
57857;DHT22;43683;48.650;9.290;2023-07-16T00:26:13;19.00;90.40
57857;DHT22;43683;48.650;9.290;2023-07-16T00:28:39;19.00;90.50
57857;DHT22;43683;48.650;9.290;2023-07-16T00:31:04;18.90;90.40
57857;DHT22;43683;48.650;9.290;2023-07-16T00:33:30;18.90;90.50
57857;DHT22;43683;48.650;9.290;2023-07-16T00:35:55;19.00;90.60
57857;DHT22;43683;48.650;9.290;2023-07-16T00:38:21;19.00;90.60
57857;DHT22;43683;48.650;9.290;2023-07-16T00:40:47;19.00;90.60
57857;DHT22;43683;48.650;9.290;2023-07-16T00:43:12;19.10;90.60
57857;DHT22;43683;48.650;9.290;2023-07-16T00:45:39;19.10;90.50
57857;DHT22;43683;48.650;9.290;2023-07-16T00:48:06;19.20;90.50
57857;DHT22;43683;48.650;9.290;2023-07-16T00:50:33;19.20;90.50
57857;DHT22;43683;48.650;9.290;2023-07-16T00:53:01;19.20;90.10
57857;DHT22;43683;48.650;9.290;2023-07-16T00:55:28;19.20;90.10
57857;DHT22;43683;48.650;9.290;2023-07-16T00:57:57;19.20;90.20
57857;DHT22;43683;48.650;9.290;2023-07-16T01:00:25;19.20;90.40
57857;DHT22;43683;48.650;9.290;2023-07-16T01:02:51;19.20;90.40
57857;DHT22;43683;48.650;9.290;2023-07-16T01:05:17;19.20;90.50
57857;DHT22;43683;48.650;9.290;2023-07-16T01:07:51;19.30;90.60
57857;DHT22;43683;48.650;9.290;2023-07-16T01:10:20;19.20;90.80
57857;DHT22;43683;48.650;9.290;2023-07-16T01:12:46;19.20;90.70
57857;DHT22;43683;48.650;9.290;2023-07-16T01:15:12;19.20;90.70
57857;DHT22;43683;48.650;9.290;2023-07-16T01:17:37;19.20;90.80
57857;DHT22;43683;48.650;9.290;2023-07-16T01:20:03;19.10;90.80
57857;DHT22;43683;48.650;9.290;2023-07-16T01:25:26;19.10;90.60
57857;DHT22;43683;48.650;9.290;2023-07-16T01:28:13;19.10;90.70
57857;DHT22;43683;48.650;9.290;2023-07-16T01:30:44;19.10;90.70
57857;DHT22;43683;48.650;9.290;2023-07-16T01:33:11;19.10;90.70
57857;DHT22;43683;48.650;9.290;2023-07-16T01:35:37;19.10;90.80
57857;DHT22;43683;48.650;9.290;2023-07-16T01:38:04;19.10;90.70
57857;DHT22;43683;48.650;9.290;2023-07-16T01:40:30;19.10;90.50
57857;DHT22;43683;48.650;9.290;2023-07-16T01:42:56;19.10;90.30
57857;DHT22;43683;48.650;9.290;2023-07-16T01:45:21;19.00;90.40
57857;DHT22;43683;48.650;9.290;2023-07-16T01:50:18;18.80;90.60
57857;DHT22;43683;48.650;9.290;2023-07-16T01:52:44;18.70;90.50
57857;DHT22;43683;48.650;9.290;2023-07-16T01:55:09;18.80;90.60
57857;DHT22;43683;48.650;9.290;2023-07-16T01:57:35;18.70;90.60
57857;DHT22;43683;48.650;9.290;2023-07-16T02:00:00;18.70;91.00
57857;DHT22;43683;48.650;9.290;2023-07-16T02:02:26;18.70;90.70
57857;DHT22;43683;48.650;9.290;2023-07-16T02:04:51;18.60;90.60
57857;DHT22;43683;48.650;9.290;2023-07-16T02:07:17;18.60;90.60
57857;DHT22;43683;48.650;9.290;2023-07-16T02:09:42;18.60;90.60
57857;DHT22;43683;48.650;9.290;2023-07-16T02:12:08;18.60;90.60
57857;DHT22;43683;48.650;9.290;2023-07-16T02:14:33;18.50;90.60
57857;DHT22;43683;48.650;9.290;2023-07-16T02:16:59;18.40;90.60
57857;DHT22;43683;48.650;9.290;2023-07-16T02:19:24;18.40;90.70
57857;DHT22;43683;48.650;9.290;2023-07-16T02:21:51;18.40;90.70
57857;DHT22;43683;48.650;9.290;2023-07-16T02:24:16;18.30;90.60
57857;DHT22;43683;48.650;9.290;2023-07-16T02:26:42;18.30;90.60
57857;DHT22;43683;48.650;9.290;2023-07-16T02:29:08;18.20;90.60
57857;DHT22;43683;48.650;9.290;2023-07-16T02:31:34;18.20;90.60
57857;DHT22;43683;48.650;9.290;2023-07-16T02:34:00;18.20;90.60
57857;DHT22;43683;48.650;9.290;2023-07-16T02:36:25;18.20;90.60
57857;DHT22;43683;48.650;9.290;2023-07-16T02:38:51;18.20;90.70
57857;DHT22;43683;48.650;9.290;2023-07-16T02:41:16;18.10;90.60
57857;DHT22;43683;48.650;9.290;2023-07-16T02:43:42;18.10;90.40
57857;DHT22;43683;48.650;9.290;2023-07-16T02:46:07;18.10;90.20
57857;DHT22;43683;48.650;9.290;2023-07-16T02:48:33;18.00;90.10
57857;DHT22;43683;48.650;9.290;2023-07-16T02:50:58;17.90;90.00
57857;DHT22;43683;48.650;9.290;2023-07-16T02:53:24;17.70;90.00
57857;DHT22;43683;48.650;9.290;2023-07-16T02:55:50;17.60;90.10
57857;DHT22;43683;48.650;9.290;2023-07-16T02:58:15;17.40;90.30
57857;DHT22;43683;48.650;9.290;2023-07-16T03:00:40;17.20;90.40
57857;DHT22;43683;48.650;9.290;2023-07-16T03:03:06;17.10;90.50
57857;DHT22;43683;48.650;9.290;2023-07-16T03:05:31;17.00;90.60
57857;DHT22;43683;48.650;9.290;2023-07-16T03:07:57;16.90;90.50
57857;DHT22;43683;48.650;9.290;2023-07-16T03:10:23;16.90;90.50
57857;DHT22;43683;48.650;9.290;2023-07-16T03:12:48;16.90;90.60
57857;DHT22;43683;48.650;9.290;2023-07-16T03:15:14;16.90;90.50
57857;DHT22;43683;48.650;9.290;2023-07-16T03:17:40;16.90;90.30
57857;DHT22;43683;48.650;9.290;2023-07-16T03:20:06;17.00;90.10
57857;DHT22;43683;48.650;9.290;2023-07-16T03:22:31;17.00;89.90
57857;DHT22;43683;48.650;9.290;2023-07-16T03:24:57;17.00;89.60
57857;DHT22;43683;48.650;9.290;2023-07-16T03:27:23;17.00;89.30
57857;DHT22;43683;48.650;9.290;2023-07-16T03:29:48;17.00;89.20
57857;DHT22;43683;48.650;9.290;2023-07-16T03:32:14;17.00;89.10
57857;DHT22;43683;48.650;9.290;2023-07-16T03:34:39;17.00;89.10
57857;DHT22;43683;48.650;9.290;2023-07-16T03:37:05;17.00;88.90
57857;DHT22;43683;48.650;9.290;2023-07-16T03:39:31;17.00;88.60
57857;DHT22;43683;48.650;9.290;2023-07-16T03:41:56;17.10;88.40
57857;DHT22;43683;48.650;9.290;2023-07-16T03:44:22;17.10;88.20
57857;DHT22;43683;48.650;9.290;2023-07-16T03:46:47;17.10;88.10
57857;DHT22;43683;48.650;9.290;2023-07-16T03:49:13;17.10;87.80
57857;DHT22;43683;48.650;9.290;2023-07-16T03:51:38;17.20;87.70
57857;DHT22;43683;48.650;9.290;2023-07-16T03:54:04;17.20;87.60
57857;DHT22;43683;48.650;9.290;2023-07-16T03:56:29;17.20;87.60
57857;DHT22;43683;48.650;9.290;2023-07-16T03:58:55;17.20;87.40
57857;DHT22;43683;48.650;9.290;2023-07-16T04:01:20;17.30;87.30
57857;DHT22;43683;48.650;9.290;2023-07-16T04:03:46;17.30;87.20
57857;DHT22;43683;48.650;9.290;2023-07-16T04:06:12;17.30;87.20
57857;DHT22;43683;48.650;9.290;2023-07-16T04:08:38;17.30;87.20
57857;DHT22;43683;48.650;9.290;2023-07-16T04:11:04;17.30;87.20
57857;DHT22;43683;48.650;9.290;2023-07-16T04:13:30;17.30;87.20
57857;DHT22;43683;48.650;9.290;2023-07-16T04:15:56;17.40;87.20
57857;DHT22;43683;48.650;9.290;2023-07-16T04:18:23;17.30;87.50
57857;DHT22;43683;48.650;9.290;2023-07-16T04:20:48;17.20;87.80
57857;DHT22;43683;48.650;9.290;2023-07-16T04:23:14;17.20;88.10
57857;DHT22;43683;48.650;9.290;2023-07-16T04:25:39;17.20;88.30
57857;DHT22;43683;48.650;9.290;2023-07-16T04:28:05;17.20;88.40
57857;DHT22;43683;48.650;9.290;2023-07-16T04:30:31;17.20;88.50
57857;DHT22;43683;48.650;9.290;2023-07-16T04:32:57;17.20;88.50
57857;DHT22;43683;48.650;9.290;2023-07-16T04:35:22;17.20;88.40
57857;DHT22;43683;48.650;9.290;2023-07-16T04:37:48;17.30;88.40
57857;DHT22;43683;48.650;9.290;2023-07-16T04:40:13;17.30;88.50
57857;DHT22;43683;48.650;9.290;2023-07-16T04:42:39;17.30;88.40
57857;DHT22;43683;48.650;9.290;2023-07-16T04:45:05;17.30;88.50
57857;DHT22;43683;48.650;9.290;2023-07-16T04:47:31;17.40;88.60
57857;DHT22;43683;48.650;9.290;2023-07-16T04:49:59;17.40;88.70
57857;DHT22;43683;48.650;9.290;2023-07-16T04:52:25;17.50;88.90
57857;DHT22;43683;48.650;9.290;2023-07-16T04:54:51;17.50;88.80
57857;DHT22;43683;48.650;9.290;2023-07-16T04:57:16;17.60;88.60
57857;DHT22;43683;48.650;9.290;2023-07-16T04:59:42;17.60;88.60
57857;DHT22;43683;48.650;9.290;2023-07-16T05:02:07;17.60;88.70
57857;DHT22;43683;48.650;9.290;2023-07-16T05:04:34;17.60;88.90
57857;DHT22;43683;48.650;9.290;2023-07-16T05:07:01;17.50;89.20
57857;DHT22;43683;48.650;9.290;2023-07-16T05:09:27;17.50;89.40
57857;DHT22;43683;48.650;9.290;2023-07-16T05:11:52;17.50;89.30
57857;DHT22;43683;48.650;9.290;2023-07-16T05:14:18;17.50;89.20
57857;DHT22;43683;48.650;9.290;2023-07-16T05:16:43;17.50;89.00
57857;DHT22;43683;48.650;9.290;2023-07-16T05:19:09;17.50;88.80
57857;DHT22;43683;48.650;9.290;2023-07-16T05:21:35;17.60;88.60
57857;DHT22;43683;48.650;9.290;2023-07-16T05:24:00;17.60;88.30
57857;DHT22;43683;48.650;9.290;2023-07-16T05:26:26;17.70;88.00
57857;DHT22;43683;48.650;9.290;2023-07-16T05:28:51;17.80;87.60
57857;DHT22;43683;48.650;9.290;2023-07-16T05:31:17;17.90;87.10
57857;DHT22;43683;48.650;9.290;2023-07-16T05:33:42;17.90;87.10
57857;DHT22;43683;48.650;9.290;2023-07-16T05:36:08;17.90;87.10
57857;DHT22;43683;48.650;9.290;2023-07-16T05:38:33;18.00;87.10
57857;DHT22;43683;48.650;9.290;2023-07-16T05:41:05;18.00;87.00
57857;DHT22;43683;48.650;9.290;2023-07-16T05:43:31;18.00;87.00
57857;DHT22;43683;48.650;9.290;2023-07-16T05:45:57;18.00;86.70
57857;DHT22;43683;48.650;9.290;2023-07-16T05:48:23;18.20;86.20
57857;DHT22;43683;48.650;9.290;2023-07-16T05:50:49;18.30;85.70
57857;DHT22;43683;48.650;9.290;2023-07-16T05:53:14;18.60;85.00
57857;DHT22;43683;48.650;9.290;2023-07-16T05:55:40;18.80;84.00
57857;DHT22;43683;48.650;9.290;2023-07-16T05:58:06;19.10;83.20
57857;DHT22;43683;48.650;9.290;2023-07-16T06:00:32;19.20;82.40
57857;DHT22;43683;48.650;9.290;2023-07-16T06:02:58;19.40;81.80
57857;DHT22;43683;48.650;9.290;2023-07-16T06:05:24;19.40;81.30
57857;DHT22;43683;48.650;9.290;2023-07-16T06:07:52;19.40;81.00
57857;DHT22;43683;48.650;9.290;2023-07-16T06:10:17;19.20;81.30
57857;DHT22;43683;48.650;9.290;2023-07-16T06:12:43;19.10;81.80
57857;DHT22;43683;48.650;9.290;2023-07-16T06:15:09;19.00;82.20
57857;DHT22;43683;48.650;9.290;2023-07-16T06:17:35;19.00;82.30
57857;DHT22;43683;48.650;9.290;2023-07-16T06:20:01;18.80;82.50
57857;DHT22;43683;48.650;9.290;2023-07-16T06:22:27;18.80;82.70
57857;DHT22;43683;48.650;9.290;2023-07-16T06:24:53;18.70;82.90
57857;DHT22;43683;48.650;9.290;2023-07-16T06:27:18;18.70;82.80
57857;DHT22;43683;48.650;9.290;2023-07-16T06:29:44;18.80;82.90
57857;DHT22;43683;48.650;9.290;2023-07-16T06:32:10;18.80;83.00
57857;DHT22;43683;48.650;9.290;2023-07-16T06:34:35;18.70;83.30
57857;DHT22;43683;48.650;9.290;2023-07-16T06:37:01;18.70;83.60
57857;DHT22;43683;48.650;9.290;2023-07-16T06:39:26;18.70;83.40
57857;DHT22;43683;48.650;9.290;2023-07-16T06:41:52;18.80;83.40
57857;DHT22;43683;48.650;9.290;2023-07-16T06:44:17;18.80;83.20
57857;DHT22;43683;48.650;9.290;2023-07-16T06:46:43;18.80;83.10
57857;DHT22;43683;48.650;9.290;2023-07-16T06:49:08;19.00;83.00
57857;DHT22;43683;48.650;9.290;2023-07-16T06:51:34;19.20;82.70
57857;DHT22;43683;48.650;9.290;2023-07-16T06:54:00;19.50;82.00
57857;DHT22;43683;48.650;9.290;2023-07-16T06:56:25;19.80;81.00
57857;DHT22;43683;48.650;9.290;2023-07-16T06:58:51;20.00;80.20
57857;DHT22;43683;48.650;9.290;2023-07-16T07:01:16;20.10;79.50
57857;DHT22;43683;48.650;9.290;2023-07-16T07:03:42;20.40;78.60
57857;DHT22;43683;48.650;9.290;2023-07-16T07:06:07;20.60;78.20
57857;DHT22;43683;48.650;9.290;2023-07-16T07:08:36;20.60;78.00
57857;DHT22;43683;48.650;9.290;2023-07-16T07:11:01;20.40;78.40
57857;DHT22;43683;48.650;9.290;2023-07-16T07:13:27;20.40;79.00
57857;DHT22;43683;48.650;9.290;2023-07-16T07:15:54;20.60;79.20
57857;DHT22;43683;48.650;9.290;2023-07-16T07:18:20;20.90;79.30
57857;DHT22;43683;48.650;9.290;2023-07-16T07:20:46;21.10;78.90
57857;DHT22;43683;48.650;9.290;2023-07-16T07:23:13;21.20;78.60
57857;DHT22;43683;48.650;9.290;2023-07-16T07:25:38;21.20;78.80
57857;DHT22;43683;48.650;9.290;2023-07-16T07:28:04;21.20;78.70
57857;DHT22;43683;48.650;9.290;2023-07-16T07:30:29;21.40;78.40
57857;DHT22;43683;48.650;9.290;2023-07-16T07:32:55;21.40;77.90
57857;DHT22;43683;48.650;9.290;2023-07-16T07:35:20;21.30;77.90
57857;DHT22;43683;48.650;9.290;2023-07-16T07:37:46;21.40;78.10
57857;DHT22;43683;48.650;9.290;2023-07-16T07:40:12;21.40;76.90
57857;DHT22;43683;48.650;9.290;2023-07-16T07:42:37;21.50;76.50
57857;DHT22;43683;48.650;9.290;2023-07-16T07:45:03;21.40;76.20
57857;DHT22;43683;48.650;9.290;2023-07-16T07:47:29;21.50;75.90
57857;DHT22;43683;48.650;9.290;2023-07-16T07:49:54;21.90;74.80
57857;DHT22;43683;48.650;9.290;2023-07-16T07:52:20;22.20;73.70
57857;DHT22;43683;48.650;9.290;2023-07-16T07:54:45;22.60;73.20
57857;DHT22;43683;48.650;9.290;2023-07-16T07:57:11;22.90;72.40
57857;DHT22;43683;48.650;9.290;2023-07-16T07:59:37;23.00;71.40
57857;DHT22;43683;48.650;9.290;2023-07-16T08:02:02;23.00;71.00
57857;DHT22;43683;48.650;9.290;2023-07-16T08:04:28;23.40;70.50
57857;DHT22;43683;48.650;9.290;2023-07-16T08:06:54;23.60;69.50
57857;DHT22;43683;48.650;9.290;2023-07-16T08:09:20;23.60;68.70
57857;DHT22;43683;48.650;9.290;2023-07-16T08:11:45;23.20;68.60
57857;DHT22;43683;48.650;9.290;2023-07-16T08:14:11;23.10;68.40
57857;DHT22;43683;48.650;9.290;2023-07-16T08:16:36;22.90;67.80
57857;DHT22;43683;48.650;9.290;2023-07-16T08:19:02;23.30;66.50
57857;DHT22;43683;48.650;9.290;2023-07-16T08:21:28;24.20;64.30
57857;DHT22;43683;48.650;9.290;2023-07-16T08:23:53;24.40;62.80
57857;DHT22;43683;48.650;9.290;2023-07-16T08:26:19;24.30;63.80
57857;DHT22;43683;48.650;9.290;2023-07-16T08:28:44;25.00;61.60
57857;DHT22;43683;48.650;9.290;2023-07-16T08:31:11;25.70;59.70
57857;DHT22;43683;48.650;9.290;2023-07-16T08:33:37;26.30;58.80
57857;DHT22;43683;48.650;9.290;2023-07-16T08:36:03;26.70;58.60
57857;DHT22;43683;48.650;9.290;2023-07-16T08:38:28;27.20;57.00
57857;DHT22;43683;48.650;9.290;2023-07-16T08:40:54;26.70;56.70
57857;DHT22;43683;48.650;9.290;2023-07-16T08:43:20;25.90;57.80
57857;DHT22;43683;48.650;9.290;2023-07-16T08:45:46;26.10;57.20
57857;DHT22;43683;48.650;9.290;2023-07-16T08:48:13;26.90;55.80
57857;DHT22;43683;48.650;9.290;2023-07-16T08:50:42;26.70;55.60
57857;DHT22;43683;48.650;9.290;2023-07-16T08:53:07;26.40;55.60
57857;DHT22;43683;48.650;9.290;2023-07-16T08:55:34;26.30;56.10
57857;DHT22;43683;48.650;9.290;2023-07-16T08:58:01;26.20;56.10
57857;DHT22;43683;48.650;9.290;2023-07-16T09:00:27;26.00;55.90
57857;DHT22;43683;48.650;9.290;2023-07-16T09:02:53;25.70;56.00
57857;DHT22;43683;48.650;9.290;2023-07-16T09:05:20;26.10;55.60
57857;DHT22;43683;48.650;9.290;2023-07-16T09:07:46;26.40;54.80
57857;DHT22;43683;48.650;9.290;2023-07-16T09:10:12;26.90;54.20
57857;DHT22;43683;48.650;9.290;2023-07-16T09:12:44;26.90;53.60
57857;DHT22;43683;48.650;9.290;2023-07-16T09:15:11;26.60;53.20
57857;DHT22;43683;48.650;9.290;2023-07-16T09:17:37;25.80;54.30
57857;DHT22;43683;48.650;9.290;2023-07-16T09:20:04;25.20;55.40
57857;DHT22;43683;48.650;9.290;2023-07-16T09:22:31;24.30;56.80
57857;DHT22;43683;48.650;9.290;2023-07-16T09:24:56;23.70;57.80
57857;DHT22;43683;48.650;9.290;2023-07-16T09:27:28;23.80;57.80
57857;DHT22;43683;48.650;9.290;2023-07-16T09:29:54;24.30;57.90
57857;DHT22;43683;48.650;9.290;2023-07-16T09:32:19;24.90;56.90
57857;DHT22;43683;48.650;9.290;2023-07-16T09:34:48;25.10;56.50
57857;DHT22;43683;48.650;9.290;2023-07-16T09:37:14;25.50;56.00
57857;DHT22;43683;48.650;9.290;2023-07-16T09:39:41;25.80;55.10
57857;DHT22;43683;48.650;9.290;2023-07-16T09:42:07;26.00;54.10
57857;DHT22;43683;48.650;9.290;2023-07-16T09:44:33;25.50;54.10
57857;DHT22;43683;48.650;9.290;2023-07-16T09:46:59;25.20;54.30
57857;DHT22;43683;48.650;9.290;2023-07-16T09:49:28;24.80;54.60
57857;DHT22;43683;48.650;9.290;2023-07-16T09:51:56;24.40;55.00
57857;DHT22;43683;48.650;9.290;2023-07-16T09:54:25;24.50;54.60
57857;DHT22;43683;48.650;9.290;2023-07-16T09:56:55;25.00;54.60
57857;DHT22;43683;48.650;9.290;2023-07-16T09:59:25;25.60;54.00
57857;DHT22;43683;48.650;9.290;2023-07-16T10:01:53;26.20;53.50
57857;DHT22;43683;48.650;9.290;2023-07-16T10:04:19;26.50;52.60
57857;DHT22;43683;48.650;9.290;2023-07-16T10:07:00;26.70;52.20
57857;DHT22;43683;48.650;9.290;2023-07-16T10:09:39;27.00;51.40
57857;DHT22;43683;48.650;9.290;2023-07-16T10:14:52;26.80;50.70
57857;DHT22;43683;48.650;9.290;2023-07-16T10:17:23;26.20;51.20
57857;DHT22;43683;48.650;9.290;2023-07-16T10:20:08;25.80;51.50
57857;DHT22;43683;48.650;9.290;2023-07-16T10:22:39;26.00;51.70
57857;DHT22;43683;48.650;9.290;2023-07-16T10:27:43;26.40;50.60
57857;DHT22;43683;48.650;9.290;2023-07-16T10:30:09;26.20;50.80
57857;DHT22;43683;48.650;9.290;2023-07-16T10:32:34;26.10;51.50
57857;DHT22;43683;48.650;9.290;2023-07-16T10:35:01;26.40;50.00
57857;DHT22;43683;48.650;9.290;2023-07-16T10:37:26;27.10;49.30
57857;DHT22;43683;48.650;9.290;2023-07-16T10:39:54;27.70;48.90
57857;DHT22;43683;48.650;9.290;2023-07-16T10:42:20;28.20;48.10
57857;DHT22;43683;48.650;9.290;2023-07-16T10:45:26;28.40;48.40
57857;DHT22;43683;48.650;9.290;2023-07-16T10:47:53;28.50;47.80
57857;DHT22;43683;48.650;9.290;2023-07-16T10:50:20;28.60;48.00
57857;DHT22;43683;48.650;9.290;2023-07-16T10:52:55;29.00;47.20
57857;DHT22;43683;48.650;9.290;2023-07-16T10:55:21;29.50;46.10
57857;DHT22;43683;48.650;9.290;2023-07-16T10:57:48;29.70;45.70
57857;DHT22;43683;48.650;9.290;2023-07-16T11:00:15;29.20;46.00
57857;DHT22;43683;48.650;9.290;2023-07-16T11:02:41;29.00;45.70
57857;DHT22;43683;48.650;9.290;2023-07-16T11:05:13;28.50;46.30
57857;DHT22;43683;48.650;9.290;2023-07-16T11:07:43;28.30;46.10
57857;DHT22;43683;48.650;9.290;2023-07-16T11:10:10;28.70;45.30
57857;DHT22;43683;48.650;9.290;2023-07-16T11:12:35;28.60;45.50
57857;DHT22;43683;48.650;9.290;2023-07-16T11:15:01;28.60;45.30
57857;DHT22;43683;48.650;9.290;2023-07-16T11:17:27;28.60;44.90
57857;DHT22;43683;48.650;9.290;2023-07-16T11:19:54;28.60;45.10
57857;DHT22;43683;48.650;9.290;2023-07-16T11:22:27;28.40;45.00
57857;DHT22;43683;48.650;9.290;2023-07-16T11:24:53;28.40;45.00
57857;DHT22;43683;48.650;9.290;2023-07-16T11:27:22;29.00;44.60
57857;DHT22;43683;48.650;9.290;2023-07-16T11:30:05;29.30;43.80
57857;DHT22;43683;48.650;9.290;2023-07-16T11:35:01;30.30;43.10
57857;DHT22;43683;48.650;9.290;2023-07-16T11:37:29;30.40;43.20
57857;DHT22;43683;48.650;9.290;2023-07-16T11:40:02;30.70;42.80
57857;DHT22;43683;48.650;9.290;2023-07-16T11:42:33;30.90;42.10
57857;DHT22;43683;48.650;9.290;2023-07-16T11:44:59;30.80;42.00
57857;DHT22;43683;48.650;9.290;2023-07-16T11:47:26;30.10;42.20
57857;DHT22;43683;48.650;9.290;2023-07-16T11:49:52;29.70;43.60
57857;DHT22;43683;48.650;9.290;2023-07-16T11:52:29;29.80;43.10
57857;DHT22;43683;48.650;9.290;2023-07-16T11:54:56;30.20;41.80
57857;DHT22;43683;48.650;9.290;2023-07-16T11:57:22;30.50;42.90
57857;DHT22;43683;48.650;9.290;2023-07-16T11:59:48;30.40;42.00
57857;DHT22;43683;48.650;9.290;2023-07-16T12:02:13;30.40;41.90
57857;DHT22;43683;48.650;9.290;2023-07-16T12:04:40;30.40;41.60
57857;DHT22;43683;48.650;9.290;2023-07-16T12:07:06;29.90;42.00
57857;DHT22;43683;48.650;9.290;2023-07-16T12:09:32;29.50;42.40
57857;DHT22;43683;48.650;9.290;2023-07-16T12:11:57;29.00;42.30
57857;DHT22;43683;48.650;9.290;2023-07-16T12:14:23;28.90;42.80
57857;DHT22;43683;48.650;9.290;2023-07-16T12:16:48;28.90;42.60
57857;DHT22;43683;48.650;9.290;2023-07-16T12:19:14;29.00;42.40
57857;DHT22;43683;48.650;9.290;2023-07-16T12:21:39;29.00;42.10
57857;DHT22;43683;48.650;9.290;2023-07-16T12:24:05;28.90;42.30
57857;DHT22;43683;48.650;9.290;2023-07-16T12:26:31;29.00;42.30
57857;DHT22;43683;48.650;9.290;2023-07-16T12:28:57;29.50;42.50
57857;DHT22;43683;48.650;9.290;2023-07-16T12:31:22;29.70;41.50
57857;DHT22;43683;48.650;9.290;2023-07-16T12:33:48;29.20;41.90
57857;DHT22;43683;48.650;9.290;2023-07-16T12:36:14;28.80;42.30
57857;DHT22;43683;48.650;9.290;2023-07-16T12:38:40;28.90;42.00
57857;DHT22;43683;48.650;9.290;2023-07-16T12:41:06;29.00;41.60
57857;DHT22;43683;48.650;9.290;2023-07-16T12:43:32;28.80;42.20
57857;DHT22;43683;48.650;9.290;2023-07-16T12:46:00;28.90;42.10
57857;DHT22;43683;48.650;9.290;2023-07-16T12:48:28;28.60;42.00
57857;DHT22;43683;48.650;9.290;2023-07-16T12:50:53;28.20;42.20
57857;DHT22;43683;48.650;9.290;2023-07-16T12:53:19;27.90;42.50
57857;DHT22;43683;48.650;9.290;2023-07-16T12:55:44;27.80;42.30
57857;DHT22;43683;48.650;9.290;2023-07-16T12:58:10;27.70;42.30
57857;DHT22;43683;48.650;9.290;2023-07-16T13:00:36;27.80;41.80
57857;DHT22;43683;48.650;9.290;2023-07-16T13:03:01;28.00;41.60
57857;DHT22;43683;48.650;9.290;2023-07-16T13:05:28;28.20;41.50
57857;DHT22;43683;48.650;9.290;2023-07-16T13:07:53;28.20;41.40
57857;DHT22;43683;48.650;9.290;2023-07-16T13:10:19;28.20;41.40
57857;DHT22;43683;48.650;9.290;2023-07-16T13:12:44;28.10;41.60
57857;DHT22;43683;48.650;9.290;2023-07-16T13:15:10;28.10;42.10
57857;DHT22;43683;48.650;9.290;2023-07-16T13:17:35;28.30;42.20
57857;DHT22;43683;48.650;9.290;2023-07-16T13:20:02;28.10;42.20
57857;DHT22;43683;48.650;9.290;2023-07-16T13:22:28;28.00;42.10
57857;DHT22;43683;48.650;9.290;2023-07-16T13:24:54;27.80;42.20
57857;DHT22;43683;48.650;9.290;2023-07-16T13:27:21;27.80;42.10
57857;DHT22;43683;48.650;9.290;2023-07-16T13:29:46;27.90;42.10
57857;DHT22;43683;48.650;9.290;2023-07-16T13:32:12;28.10;42.00
57857;DHT22;43683;48.650;9.290;2023-07-16T13:34:38;28.10;41.70
57857;DHT22;43683;48.650;9.290;2023-07-16T13:37:03;28.00;41.80
57857;DHT22;43683;48.650;9.290;2023-07-16T13:39:29;28.00;42.00
57857;DHT22;43683;48.650;9.290;2023-07-16T13:41:54;28.00;42.50
57857;DHT22;43683;48.650;9.290;2023-07-16T13:44:20;28.60;42.20
57857;DHT22;43683;48.650;9.290;2023-07-16T13:46:45;29.10;41.90
57857;DHT22;43683;48.650;9.290;2023-07-16T13:49:11;29.70;41.20
57857;DHT22;43683;48.650;9.290;2023-07-16T13:51:37;30.20;40.70
57857;DHT22;43683;48.650;9.290;2023-07-16T13:54:03;30.40;40.20
57857;DHT22;43683;48.650;9.290;2023-07-16T13:56:28;30.40;39.90
57857;DHT22;43683;48.650;9.290;2023-07-16T13:58:54;30.20;40.00
57857;DHT22;43683;48.650;9.290;2023-07-16T14:01:19;30.40;40.60
57857;DHT22;43683;48.650;9.290;2023-07-16T14:03:45;30.80;40.00
57857;DHT22;43683;48.650;9.290;2023-07-16T14:06:10;31.20;39.50
57857;DHT22;43683;48.650;9.290;2023-07-16T14:08:36;31.40;39.10
57857;DHT22;43683;48.650;9.290;2023-07-16T14:11:02;31.40;39.20
57857;DHT22;43683;48.650;9.290;2023-07-16T14:13:31;31.20;39.20
57857;DHT22;43683;48.650;9.290;2023-07-16T14:15:57;30.80;39.20
57857;DHT22;43683;48.650;9.290;2023-07-16T14:18:22;30.30;39.50
57857;DHT22;43683;48.650;9.290;2023-07-16T14:20:48;29.80;40.00
57857;DHT22;43683;48.650;9.290;2023-07-16T14:23:13;29.40;40.20
57857;DHT22;43683;48.650;9.290;2023-07-16T14:25:39;29.10;40.40
57857;DHT22;43683;48.650;9.290;2023-07-16T14:28:04;29.00;40.00
57857;DHT22;43683;48.650;9.290;2023-07-16T14:30:30;29.00;40.30
57857;DHT22;43683;48.650;9.290;2023-07-16T14:32:55;28.90;40.70
57857;DHT22;43683;48.650;9.290;2023-07-16T14:35:21;28.80;40.60
57857;DHT22;43683;48.650;9.290;2023-07-16T14:37:47;28.70;40.90
57857;DHT22;43683;48.650;9.290;2023-07-16T14:40:13;28.50;40.90
57857;DHT22;43683;48.650;9.290;2023-07-16T14:42:38;28.40;41.20
57857;DHT22;43683;48.650;9.290;2023-07-16T14:45:05;28.30;41.60
57857;DHT22;43683;48.650;9.290;2023-07-16T14:47:33;28.20;41.60
57857;DHT22;43683;48.650;9.290;2023-07-16T14:49:58;28.10;41.50
57857;DHT22;43683;48.650;9.290;2023-07-16T14:52:24;28.00;41.70
57857;DHT22;43683;48.650;9.290;2023-07-16T14:54:50;28.10;41.80
57857;DHT22;43683;48.650;9.290;2023-07-16T14:57:15;28.20;41.70
57857;DHT22;43683;48.650;9.290;2023-07-16T14:59:41;28.40;41.40
57857;DHT22;43683;48.650;9.290;2023-07-16T15:02:06;28.50;41.10
57857;DHT22;43683;48.650;9.290;2023-07-16T15:04:32;28.90;41.80
57857;DHT22;43683;48.650;9.290;2023-07-16T15:06:57;29.60;40.60
57857;DHT22;43683;48.650;9.290;2023-07-16T15:09:23;30.50;39.80
57857;DHT22;43683;48.650;9.290;2023-07-16T15:11:49;31.40;38.80
57857;DHT22;43683;48.650;9.290;2023-07-16T15:14:14;31.90;38.10
57857;DHT22;43683;48.650;9.290;2023-07-16T15:16:40;32.20;37.50
57857;DHT22;43683;48.650;9.290;2023-07-16T15:19:05;32.50;37.00
57857;DHT22;43683;48.650;9.290;2023-07-16T15:21:31;32.50;36.70
57857;DHT22;43683;48.650;9.290;2023-07-16T15:23:57;32.60;36.50
57857;DHT22;43683;48.650;9.290;2023-07-16T15:26:22;32.80;36.50
57857;DHT22;43683;48.650;9.290;2023-07-16T15:28:48;33.20;36.20
57857;DHT22;43683;48.650;9.290;2023-07-16T15:31:13;33.10;36.00
57857;DHT22;43683;48.650;9.290;2023-07-16T15:33:39;32.80;35.70
57857;DHT22;43683;48.650;9.290;2023-07-16T15:36:05;32.00;35.90
57857;DHT22;43683;48.650;9.290;2023-07-16T15:38:31;31.20;36.50